Time;durP1;ratioP1;P1;durP2;ratioP2;P2;SDS_P1;SDS_P2;PMS_P1;PMS_P2;Temp;Humidity;BMP_temperature;BMP_pressure;BME280_temperature;BME280_humidity;BME280_pressure;Samples;Min_cycle;Max_cycle;Signal;HPM_P1;HPM_P2
2022/07/05 00:02:15;;;;;;;;;0.75;0.75;;;;;21.27;44.59;101843.25;5020484;28;45446;-64
2022/07/05 00:04:40;;;;;;;;;0.00;0.00;;;;;21.21;44.63;101846.31;5020967;28;45372;-63
2022/07/05 00:07:18;;;;;;;;;0.25;0.00;;;;;21.13;45.04;101835.03;5020761;28;45442;-64
2022/07/05 00:09:51;;;;;;;;;1.00;1.00;;;;;21.05;45.17;101827.38;5020882;28;45313;-64
2022/07/05 00:12:18;;;;;;;;;1.00;1.00;;;;;21.10;45.43;101834.25;5025506;28;47096;-64
2022/07/05 00:14:44;;;;;;;;;2.00;1.00;;;;;21.02;45.06;101819.41;5020818;28;45334;-63
2022/07/05 00:17:11;;;;;;;;;2.00;1.00;;;;;21.02;45.23;101831.13;5023715;28;45490;-64
2022/07/05 00:19:36;;;;;;;;;1.00;1.00;;;;;21.04;45.42;101840.03;5021731;28;45234;-64
2022/07/05 00:22:02;;;;;;;;;0.75;0.75;;;;;21.03;45.03;101838.31;5022898;28;46116;-64
2022/07/05 00:24:27;;;;;;;;;1.00;1.00;;;;;20.87;45.57;101813.91;5035590;28;45365;-64
2022/07/05 00:26:53;;;;;;;;;2.00;1.00;;;;;20.96;45.11;101836.91;5020425;28;45323;-63
2022/07/05 00:29:18;;;;;;;;;0.00;0.00;;;;;20.96;45.19;101844.19;5021200;28;52965;-64
2022/07/05 00:31:44;;;;;;;;;1.00;0.75;;;;;20.94;45.67;101836.13;5024331;28;45299;-63
2022/07/05 00:34:09;;;;;;;;;1.25;1.25;;;;;20.93;45.67;101839.78;5040583;28;45416;-64
2022/07/05 00:36:35;;;;;;;;;0.00;0.00;;;;;20.82;45.50;101826.88;5040417;28;45329;-64
2022/07/05 00:39:00;;;;;;;;;1.00;1.00;;;;;20.92;45.36;101840.78;5025200;28;45481;-64
2022/07/05 00:41:25;;;;;;;;;1.25;0.75;;;;;20.86;45.00;101827.56;5021333;28;45377;-64
2022/07/05 00:43:57;;;;;;;;;0.00;0.00;;;;;20.89;45.45;101841.81;5030187;28;45363;-64
2022/07/05 00:46:23;;;;;;;;;0.75;0.75;;;;;20.84;45.54;101843.94;5024049;28;45329;-64
2022/07/05 00:48:49;;;;;;;;;1.00;1.00;;;;;20.81;45.79;101843.25;5019273;28;45354;-64
2022/07/05 00:51:15;;;;;;;;;1.00;1.00;;;;;20.81;45.89;101844.09;5019317;28;45323;-64
2022/07/05 00:53:41;;;;;;;;;1.75;1.75;;;;;20.75;45.82;101833.63;5039212;28;45370;-64
2022/07/05 00:56:07;;;;;;;;;1.75;1.00;;;;;20.78;45.90;101840.69;5040273;28;45441;-64
2022/07/05 00:58:33;;;;;;;;;1.50;1.00;;;;;20.72;45.80;101850.09;5038075;28;45272;-64
2022/07/05 01:01:01;;;;;;;;;0.00;0.00;;;;;20.68;46.08;101843.97;5039769;28;45402;-64
2022/07/05 01:03:27;;;;;;;;;0.25;0.00;;;;;20.64;45.93;101842.38;5038231;28;45493;-64
2022/07/05 01:05:53;;;;;;;;;1.25;1.00;;;;;20.52;45.81;101832.19;5040003;28;45272;-64
2022/07/05 01:08:19;;;;;;;;;1.00;1.00;;;;;20.59;45.87;101844.44;5038838;28;45247;-64
2022/07/05 01:10:45;;;;;;;;;0.00;0.00;;;;;20.50;45.79;101829.56;5020816;28;46187;-64
2022/07/05 01:13:10;;;;;;;;;1.00;1.00;;;;;20.44;46.12;101831.75;5033008;28;46075;-64
2022/07/05 01:15:36;;;;;;;;;0.00;0.00;;;;;20.35;46.22;101819.59;5021247;28;45471;-64
2022/07/05 01:18:02;;;;;;;;;0.50;0.50;;;;;20.35;46.34;101836.75;5020170;28;46415;-64
2022/07/05 01:20:27;;;;;;;;;1.50;1.00;;;;;20.35;46.45;101835.88;5024689;28;47274;-64
2022/07/05 01:22:59;;;;;;;;;1.00;1.00;;;;;20.25;46.67;101830.09;5031697;28;45339;-64
2022/07/05 01:25:27;;;;;;;;;1.25;1.00;;;;;20.22;46.57;101829.38;5039677;28;45375;-64
2022/07/05 01:27:53;;;;;;;;;1.00;1.00;;;;;20.20;46.59;101836.72;5038944;28;45399;-64
2022/07/05 01:30:19;;;;;;;;;1.00;1.00;;;;;20.17;46.67;101829.63;5039457;28;45918;-64
2022/07/05 01:32:45;;;;;;;;;0.00;0.00;;;;;20.17;46.82;101835.06;5030647;28;45586;-64
2022/07/05 01:35:12;;;;;;;;;2.00;2.00;;;;;20.13;47.12;101834.34;5039582;28;45395;-64
2022/07/05 01:37:38;;;;;;;;;2.00;1.00;;;;;20.13;47.06;101838.88;5021044;28;45338;-64
2022/07/05 01:40:05;;;;;;;;;0.50;0.00;;;;;20.10;47.02;101837.22;5020070;28;45427;-64
2022/07/05 01:42:31;;;;;;;;;1.00;1.00;;;;;20.06;46.79;101830.22;5022174;28;45511;-64
2022/07/05 01:44:56;;;;;;;;;0.75;0.75;;;;;20.06;47.00;101823.94;5024737;28;45350;-64
2022/07/05 01:47:22;;;;;;;;;1.00;1.00;;;;;20.12;47.12;101835.31;5019542;28;45406;-64
2022/07/05 01:49:51;;;;;;;;;1.00;1.00;;;;;20.12;47.04;101835.31;5024082;28;45441;-64
2022/07/05 01:52:20;;;;;;;;;2.25;1.75;;;;;20.12;47.32;101834.44;5038086;28;45439;-64
2022/07/05 01:54:46;;;;;;;;;0.75;0.75;;;;;20.01;47.25;101826.03;5024005;28;45270;-64
2022/07/05 01:57:11;;;;;;;;;1.00;1.00;;;;;20.03;47.43;101837.66;5019363;28;45474;-64
2022/07/05 01:59:37;;;;;;;;;0.50;0.50;;;;;19.99;47.28;101826.09;5025287;28;45497;-64
2022/07/05 02:02:05;;;;;;;;;1.00;1.00;;;;;20.02;47.19;101838.63;5036891;28;45270;-63
2022/07/05 02:04:32;;;;;;;;;0.00;0.00;;;;;19.90;46.91;101823.91;5039207;28;45248;-64
2022/07/05 02:06:58;;;;;;;;;0.00;0.00;;;;;19.86;47.05;101825.03;5037736;28;45350;-64
2022/07/05 02:09:24;;;;;;;;;1.00;1.00;;;;;19.78;47.13;101809.19;5037181;28;47104;-64
2022/07/05 02:11:49;;;;;;;;;1.00;1.00;;;;;19.88;47.28;101834.84;5041685;28;45476;-64
2022/07/05 02:14:15;;;;;;;;;1.00;1.00;;;;;19.83;47.42;101823.38;5037682;28;45403;-63
2022/07/05 02:16:40;;;;;;;;;0.25;0.25;;;;;19.83;47.66;101830.59;5022566;28;45474;-64
2022/07/05 02:19:05;;;;;;;;;0.75;0.75;;;;;19.79;47.67;101830.75;5025461;28;45961;-64
2022/07/05 02:21:31;;;;;;;;;2.00;2.00;;;;;19.74;48.04;101829.22;5042338;28;45260;-64
2022/07/05 02:23:56;;;;;;;;;2.75;1.25;;;;;19.73;48.33;101839.22;5037622;28;45382;-64
2022/07/05 02:26:21;;;;;;;;;2.00;2.00;;;;;19.71;48.99;101830.28;5022549;28;45301;-64
2022/07/05 02:28:47;;;;;;;;;2.00;1.00;;;;;19.61;48.92;101818.16;5021854;28;45495;-64
2022/07/05 02:31:12;;;;;;;;;2.75;1.50;;;;;19.63;49.08;101837.94;5022560;28;45410;-64
2022/07/05 02:33:38;;;;;;;;;2.00;2.00;;;;;19.57;49.70;101827.44;5022588;28;45327;-64
2022/07/05 02:36:08;;;;;;;;;1.25;1.25;;;;;19.48;49.89;101831.50;5022519;28;45388;-64
2022/07/05 02:38:34;;;;;;;;;1.00;1.00;;;;;19.49;50.24;101835.94;5021729;28;46493;-64
2022/07/05 02:40:59;;;;;;;;;3.00;3.00;;;;;19.49;49.96;101837.78;5039173;28;45383;-64
2022/07/05 02:43:24;;;;;;;;;3.00;1.25;;;;;19.43;49.92;101828.16;5036900;28;45291;-64
2022/07/05 02:45:50;;;;;;;;;1.00;1.00;;;;;19.46;50.51;101829.81;5022113;28;45440;-64
2022/07/05 02:48:15;;;;;;;;;3.50;1.50;;;;;19.43;50.19;101823.63;5021898;28;46596;-64
2022/07/05 02:50:40;;;;;;;;;3.00;1.50;;;;;19.45;50.39;101828.97;5036227;28;52020;-64
2022/07/05 02:53:06;;;;;;;;;1.50;1.25;;;;;19.38;50.57;101819.41;5038395;28;45399;-64
2022/07/05 02:55:31;;;;;;;;;2.75;1.00;;;;;19.40;50.63;101820.19;5040572;28;45545;-64
2022/07/05 02:57:57;;;;;;;;;2.50;2.00;;;;;19.37;50.73;101810.41;5041625;28;45317;-64
2022/07/05 03:00:23;;;;;;;;;0.00;0.00;;;;;19.32;50.77;101807.06;5026848;28;45452;-64
2022/07/05 03:02:48;;;;;;;;;4.00;3.00;;;;;19.37;50.83;101823.06;5037273;28;45423;-64
2022/07/05 03:05:13;;;;;;;;;1.25;1.25;;;;;19.36;50.79;101822.19;5020711;28;45372;-64
2022/07/05 03:07:39;;;;;;;;;1.75;1.75;;;;;19.38;50.84;101819.41;5021565;28;45384;-64
2022/07/05 03:10:05;;;;;;;;;2.00;2.00;;;;;19.33;51.15;101824.16;5031962;28;45252;-64
2022/07/05 03:12:30;;;;;;;;;2.00;2.00;;;;;19.25;51.11;101813.75;5021723;28;45331;-64
2022/07/05 03:14:55;;;;;;;;;1.00;1.00;;;;;19.27;51.27;101825.38;5021952;28;45458;-64
2022/07/05 03:17:20;;;;;;;;;3.00;2.00;;;;;19.30;51.45;101837.88;5021486;28;46119;-64
2022/07/05 03:19:46;;;;;;;;;2.25;1.50;;;;;19.29;51.12;101837.00;5021843;28;45334;-64
2022/07/05 03:22:11;;;;;;;;;1.50;1.50;;;;;19.30;51.54;101837.88;5020612;28;45553;-64
2022/07/05 03:24:36;;;;;;;;;0.75;0.75;;;;;19.30;51.55;101840.59;5021743;28;45372;-64
2022/07/05 03:27:02;;;;;;;;;1.25;1.25;;;;;19.29;51.50;101834.28;5020747;28;57891;-64
2022/07/05 03:29:27;;;;;;;;;1.50;1.50;;;;;19.27;51.67;101827.22;5026257;28;45335;-64
2022/07/05 03:31:53;;;;;;;;;4.00;1.25;;;;;19.30;51.54;101837.88;5025855;28;45258;-64
2022/07/05 03:34:18;;;;;;;;;1.00;1.00;;;;;19.25;51.62;101832.72;5021551;28;45438;-64
2022/07/05 03:36:43;;;;;;;;;1.50;1.50;;;;;19.20;52.04;101834.78;5020526;28;57039;-64
2022/07/05 03:39:08;;;;;;;;;2.75;2.00;;;;;19.25;51.84;101849.81;5031896;28;45484;-64
2022/07/05 03:41:34;;;;;;;;;3.25;1.00;;;;;19.20;51.93;101846.47;5021365;28;45486;-64
2022/07/05 03:43:59;;;;;;;;;3.00;2.00;;;;;19.18;52.09;101836.69;5028870;28;47811;-64
2022/07/05 03:46:24;;;;;;;;;3.25;2.00;;;;;19.21;52.21;101841.91;5021007;28;45324;-64
2022/07/05 03:48:50;;;;;;;;;1.50;1.50;;;;;19.29;51.92;101852.38;5021042;28;45391;-64
2022/07/05 03:51:15;;;;;;;;;2.00;2.00;;;;;19.28;51.99;101856.00;5021464;28;45462;-64
2022/07/05 03:53:40;;;;;;;;;4.75;2.75;;;;;19.27;52.38;101860.56;5027626;28;45392;-64
2022/07/05 03:56:06;;;;;;;;;3.00;2.00;;;;;19.19;52.31;101850.13;5040935;28;45364;-64
2022/07/05 03:58:32;;;;;;;;;6.00;3.00;;;;;19.25;52.11;101865.19;5040918;28;45373;-64
2022/07/05 04:00:57;;;;;;;;;2.50;2.50;;;;;19.18;52.09;101861.91;5033047;28;45458;-64
2022/07/05 04:03:22;;;;;;;;;4.00;2.75;;;;;19.17;52.51;101860.16;5020821;28;45881;-64
2022/07/05 04:05:47;;;;;;;;;4.00;3.25;;;;;19.18;52.54;101864.63;5020911;28;45658;-64
2022/07/05 04:08:13;;;;;;;;;4.00;2.50;;;;;19.16;52.82;101863.84;5024168;28;45365;-64
2022/07/05 04:10:38;;;;;;;;;2.00;2.00;;;;;19.13;52.80;101860.38;5032526;28;45482;-64
2022/07/05 04:13:03;;;;;;;;;3.50;3.50;;;;;19.05;53.09;101855.38;5021566;28;45412;-64
2022/07/05 04:15:29;;;;;;;;;2.50;2.50;;;;;19.04;53.10;101878.84;5028977;28;47633;-64
2022/07/05 04:17:56;;;;;;;;;2.00;2.00;;;;;19.00;52.84;101869.13;5020152;28;45245;-64
2022/07/05 04:20:22;;;;;;;;;5.50;3.00;;;;;19.00;52.86;101870.97;5020917;28;45177;-64
2022/07/05 04:22:48;;;;;;;;;4.00;2.25;;;;;19.01;53.03;101875.41;5038609;28;45276;-64
2022/07/05 04:25:16;;;;;;;;;5.50;2.00;;;;;19.00;53.16;101881.78;5040470;28;46189;-64
2022/07/05 04:27:46;;;;;;;;;5.25;2.50;;;;;18.97;52.94;101876.53;5038509;28;45400;-64
2022/07/05 04:30:12;;;;;;;;;3.00;2.00;;;;;19.02;52.88;101885.28;5040527;28;45398;-64
2022/07/05 04:32:37;;;;;;;;;2.75;2.75;;;;;18.98;53.17;101879.16;5032222;28;45311;-64
2022/07/05 04:35:02;;;;;;;;;5.00;3.00;;;;;18.98;53.07;101878.28;5020381;28;46022;-64
2022/07/05 04:37:28;;;;;;;;;2.75;2.75;;;;;18.98;53.23;101881.88;5021065;28;45299;-64
2022/07/05 04:39:53;;;;;;;;;4.25;3.75;;;;;18.98;53.19;101878.28;5022032;28;45258;-64
2022/07/05 04:42:18;;;;;;;;;2.00;2.00;;;;;19.01;53.28;101883.53;5021824;28;45209;-66
2022/07/05 04:44:44;;;;;;;;;4.50;3.00;;;;;18.92;53.61;101876.75;5027442;28;46506;-64
2022/07/05 04:47:09;;;;;;;;;2.00;2.00;;;;;18.96;53.54;101877.47;5033270;28;45464;-63
2022/07/05 04:49:34;;;;;;;;;2.25;2.00;;;;;18.91;53.81;101885.84;5038487;28;45513;-64
2022/07/05 04:52:00;;;;;;;;;3.00;3.00;;;;;18.93;54.05;101891.13;5038699;28;45397;-63
2022/07/05 04:54:25;;;;;;;;;3.50;3.00;;;;;18.85;53.92;101883.41;5039978;28;45971;-64
2022/07/05 04:56:50;;;;;;;;;6.25;3.25;;;;;18.91;54.23;101891.25;5038595;28;45753;-64
2022/07/05 04:59:16;;;;;;;;;4.00;2.00;;;;;18.83;54.06;101875.38;5034396;28;45461;-64
2022/07/05 05:01:41;;;;;;;;;5.50;3.50;;;;;18.93;53.46;101883.91;5029449;28;45330;-64
2022/07/05 05:04:06;;;;;;;;;2.00;2.00;;;;;18.92;53.91;101884.88;5031826;28;45463;-64
2022/07/05 05:06:32;;;;;;;;;3.50;3.50;;;;;18.88;53.76;101877.88;5019596;28;45348;-65
2022/07/05 05:08:57;;;;;;;;;4.00;3.75;;;;;18.90;54.23;101883.19;5035829;28;45419;-63
2022/07/05 05:11:22;;;;;;;;;5.00;3.25;;;;;18.93;54.31;101883.03;5038765;28;45367;-63
2022/07/05 05:13:48;;;;;;;;;40.75;35.25;;;;;18.95;53.94;101889.25;5039934;28;45404;-72
2022/07/05 05:16:13;;;;;;;;;138.75;125.00;;;;;18.94;54.08;101880.25;5039609;28;45366;-73
2022/07/05 05:18:41;;;;;;;;;12.75;12.50;;;;;18.93;53.92;101877.63;5033029;28;45458;-75
2022/07/05 05:21:06;;;;;;;;;6.25;4.25;;;;;18.98;54.07;101889.97;5020925;28;45870;-74
2022/07/05 05:23:32;;;;;;;;;6.25;5.00;;;;;18.97;54.14;101887.34;5019389;28;46343;-75
2022/07/05 05:25:57;;;;;;;;;5.00;5.00;;;;;19.02;54.23;101893.41;5034807;28;45419;-75
2022/07/05 05:28:23;;;;;;;;;3.75;3.25;;;;;18.99;54.37;101890.84;5036496;28;45327;-75
2022/07/05 05:30:48;;;;;;;;;3.75;3.50;;;;;18.99;54.08;101885.44;5037061;28;45852;-73
2022/07/05 05:33:13;;;;;;;;;5.00;3.75;;;;;18.95;53.67;101879.31;5034604;28;48002;-73
2022/07/05 05:35:39;;;;;;;;;7.00;6.25;;;;;19.10;53.84;101902.03;5019555;28;45200;-73
2022/07/05 05:38:04;;;;;;;;;7.00;7.00;;;;;19.12;54.03;101907.34;5027157;28;45520;-73
2022/07/05 05:40:30;;;;;;;;;3.25;3.25;;;;;19.01;53.97;101895.25;5020384;28;45846;-73
2022/07/05 05:42:56;;;;;;;;;3.50;3.50;;;;;19.05;53.93;101898.66;5034070;28;48503;-73
2022/07/05 05:45:22;;;;;;;;;3.75;3.75;;;;;19.05;53.88;101909.50;5026355;28;45542;-72
2022/07/05 05:47:59;;;;;;;;;3.75;3.75;;;;;19.11;54.00;101908.31;5030536;28;45421;-72
2022/07/05 05:50:28;;;;;;;;;5.25;4.00;;;;;19.08;54.07;101903.94;5027754;28;45458;-72
2022/07/05 05:52:54;;;;;;;;;0.00;0.00;;;;;19.10;53.80;101909.28;5027688;28;46285;-71
2022/07/05 05:55:20;;;;;;;;;4.00;4.00;;;;;19.13;54.00;101912.69;5023124;28;45261;-71
2022/07/05 05:57:46;;;;;;;;;4.50;4.50;;;;;19.17;54.02;101927.81;5022763;28;45445;-72
2022/07/05 06:00:12;;;;;;;;;3.25;2.25;;;;;19.11;54.19;101917.31;5040779;28;46189;-72
2022/07/05 06:02:39;;;;;;;;;5.00;4.75;;;;;19.15;53.40;101923.44;5034541;28;45410;-71
2022/07/05 06:05:05;;;;;;;;;5.50;4.00;;;;;19.20;54.23;101932.22;5029032;28;45450;-71
2022/07/05 06:07:30;;;;;;;;;4.00;4.00;;;;;19.04;54.32;101905.91;5026288;28;45586;-72
2022/07/05 06:09:56;;;;;;;;;6.75;4.00;;;;;19.23;54.10;101926.66;5021455;28;45826;-72
2022/07/05 06:12:21;;;;;;;;;7.75;6.00;;;;;19.22;54.11;101925.75;5022508;28;45373;-71
2022/07/05 06:14:46;;;;;;;;;5.75;4.50;;;;;19.25;54.21;101933.72;5023933;28;45427;-72
2022/07/05 06:17:12;;;;;;;;;6.00;5.00;;;;;19.15;54.04;101920.75;5023627;28;45459;-72
2022/07/05 06:19:37;;;;;;;;;5.00;5.00;;;;;19.22;54.40;101933.88;5023220;28;45767;-73
2022/07/05 06:22:03;;;;;;;;;6.00;3.00;;;;;19.21;54.22;101926.72;5018923;28;48220;-74
2022/07/05 06:24:36;;;;;;;;;5.50;5.50;;;;;19.23;54.26;101929.34;5034616;28;45454;-74
2022/07/05 06:27:01;;;;;;;;;20.00;13.75;;;;;18.99;54.28;101888.13;5035746;28;45295;-74
2022/07/05 06:29:26;;;;;;;;;7.75;6.50;;;;;19.05;54.77;101904.06;5023883;28;45572;-75
2022/07/05 06:31:52;;;;;;;;;5.00;5.00;;;;;19.04;54.20;101895.09;5020607;28;46173;-75
2022/07/05 06:34:19;;;;;;;;;5.25;5.25;;;;;19.16;54.36;101917.97;5038352;28;45493;-74
2022/07/05 06:36:45;;;;;;;;;6.00;4.50;;;;;19.27;54.59;101930.06;5039735;28;45442;-74
2022/07/05 06:39:11;;;;;;;;;6.25;5.25;;;;;19.12;54.30;101905.53;5039200;28;45723;-74
2022/07/05 06:41:36;;;;;;;;;6.00;5.00;;;;;19.19;54.68;101920.50;5027274;28;45400;-74
2022/07/05 06:44:01;;;;;;;;;5.00;5.00;;;;;19.22;54.14;101930.31;5036701;28;48524;-74
2022/07/05 06:46:26;;;;;;;;;7.00;4.50;;;;;19.29;54.85;101950.69;5025147;28;45583;-74
2022/07/05 06:48:52;;;;;;;;;8.00;6.50;;;;;19.31;54.49;101946.09;5039908;28;45452;-75
2022/07/05 06:51:17;;;;;;;;;9.25;8.00;;;;;19.19;54.58;101925.03;5028555;28;47770;-74
2022/07/05 06:53:42;;;;;;;;;6.00;6.00;;;;;19.12;54.79;101910.94;5025029;28;45458;-74
2022/07/05 06:56:08;;;;;;;;;7.50;6.00;;;;;19.06;54.87;101914.84;5029963;28;45734;-75
2022/07/05 06:58:33;;;;;;;;;7.75;5.00;;;;;19.22;54.71;101928.47;5038866;28;45536;-74
2022/07/05 07:00:58;;;;;;;;;7.00;6.50;;;;;19.15;54.86;101912.63;5038805;28;46992;-74
2022/07/05 07:03:24;;;;;;;;;6.50;5.00;;;;;19.04;54.79;101899.59;5029002;28;45403;-75
2022/07/05 07:05:50;;;;;;;;;5.75;5.75;;;;;19.11;55.20;101908.31;5031089;28;45395;-74
2022/07/05 07:11:00;;;;;;;;;11.75;9.25;;;;;19.19;54.35;101908.78;5028308;28;45756;-74
2022/07/05 07:13:27;;;;;;;;;8.50;7.25;;;;;19.19;54.32;101912.38;5034040;28;45351;-74
2022/07/05 07:15:53;;;;;;;;;8.00;6.00;;;;;19.21;54.81;101917.72;5032025;28;45447;-74
2022/07/05 07:18:18;;;;;;;;;8.00;7.75;;;;;19.36;54.47;101943.13;5023413;28;45436;-74
2022/07/05 07:20:43;;;;;;;;;8.75;7.50;;;;;19.31;55.21;101947.91;5019307;28;48069;-74
2022/07/05 07:23:09;;;;;;;;;9.00;7.00;;;;;19.11;55.21;101916.41;5033702;28;45407;-75
2022/07/05 07:25:34;;;;;;;;;7.25;5.50;;;;;19.28;54.61;101934.50;5026716;28;45392;-75
2022/07/05 07:28:00;;;;;;;;;8.75;6.75;;;;;19.16;54.52;101901.72;5029482;28;45679;-75
2022/07/05 07:30:28;;;;;;;;;7.00;6.75;;;;;19.47;54.49;101940.75;5028827;28;45383;-74
2022/07/05 07:32:54;;;;;;;;;8.50;7.25;;;;;19.55;54.40;101946.66;5020568;28;45470;-74
2022/07/05 07:35:21;;;;;;;;;7.50;5.50;;;;;19.39;54.61;101905.06;5019389;28;45462;-75
2022/07/05 07:37:47;;;;;;;;;7.75;7.75;;;;;19.49;54.65;101910.91;5020364;28;45387;-75
2022/07/05 07:40:13;;;;;;;;;6.00;6.00;;;;;19.77;54.06;101948.31;5022938;28;46805;-75
2022/07/05 07:42:38;;;;;;;;;8.25;6.75;;;;;19.65;54.21;101925.41;5040183;28;45466;-75
2022/07/05 07:45:05;;;;;;;;;9.50;7.00;;;;;19.69;53.90;101927.00;5034804;28;45444;-75
2022/07/05 07:47:31;;;;;;;;;7.00;7.00;;;;;19.92;54.02;101957.47;5021730;28;45323;-74
2022/07/05 07:49:57;;;;;;;;;5.50;5.50;;;;;19.99;53.55;101961.59;5020080;28;45474;-74
2022/07/05 07:52:22;;;;;;;;;5.50;4.00;;;;;20.01;53.42;101956.97;5019644;28;45417;-74
2022/07/05 07:54:47;;;;;;;;;6.00;5.50;;;;;19.98;53.06;101947.19;5019216;28;45409;-74
2022/07/05 07:57:13;;;;;;;;;5.25;5.25;;;;;20.02;52.89;101939.75;5027224;28;45400;-75
2022/07/05 07:59:38;;;;;;;;;9.50;6.75;;;;;20.11;52.88;101944.72;5026047;28;47268;-74
2022/07/05 08:02:04;;;;;;;;;9.00;7.00;;;;;20.28;53.60;101964.59;5020061;28;45620;-75
2022/07/05 08:04:29;;;;;;;;;9.50;8.50;;;;;20.26;53.49;101964.66;5019911;28;45418;-74
2022/07/05 08:06:54;;;;;;;;;6.75;5.00;;;;;20.21;53.09;101941.47;5017714;28;49271;-73
2022/07/05 08:09:20;;;;;;;;;9.00;8.00;;;;;20.41;52.86;101962.09;5018172;28;47400;-74
2022/07/05 08:11:47;;;;;;;;;9.25;7.75;;;;;20.28;52.91;101942.91;5016292;28;45837;-74
2022/07/05 08:14:13;;;;;;;;;9.00;9.00;;;;;20.44;52.39;101960.09;5051178;28;45386;-79
2022/07/05 08:16:38;;;;;;;;;6.50;6.50;;;;;20.13;52.90;101899.41;5026867;28;45493;-74
2022/07/05 08:21:50;;;;;;;;;7.75;7.25;;;;;20.49;52.63;101930.88;5019235;28;45670;-73
2022/07/05 08:24:16;;;;;;;;;7.75;6.50;;;;;20.62;52.34;101931.06;5018516;28;45474;-73
2022/07/05 08:26:45;;;;;;;;;6.25;6.25;;;;;20.69;51.88;101932.50;5019564;28;45360;-73
2022/07/05 08:29:13;;;;;;;;;6.75;5.75;;;;;20.82;51.64;101935.41;5019242;28;47458;-73
2022/07/05 08:31:44;;;;;;;;;7.00;7.00;;;;;20.76;51.63;101924.03;5020511;28;45289;-73
2022/07/05 08:34:10;;;;;;;;;6.25;5.75;;;;;20.99;51.37;101955.28;5035626;28;45758;-73
2022/07/05 08:36:36;;;;;;;;;6.50;5.50;;;;;20.85;51.12;101920.81;5019345;28;45649;-73
2022/07/05 08:39:01;;;;;;;;;6.00;6.00;;;;;21.01;50.70;101945.22;5023275;28;47429;-73
2022/07/05 08:41:29;;;;;;;;;6.50;6.50;;;;;21.02;50.78;101926.13;5034263;28;45560;-73
2022/07/05 08:43:57;;;;;;;;;7.25;5.50;;;;;21.17;51.18;101937.06;5023257;28;45457;-73
2022/07/05 08:46:25;;;;;;;;;6.00;5.50;;;;;21.27;50.89;101949.16;5019462;28;45545;-73
2022/07/05 08:48:51;;;;;;;;;6.75;5.50;;;;;21.32;50.26;101954.28;5025846;28;45661;-73
2022/07/05 08:51:21;;;;;;;;;5.00;5.00;;;;;21.16;50.64;101914.47;5038827;28;45458;-73
2022/07/05 08:53:48;;;;;;;;;5.50;5.00;;;;;21.27;50.29;101916.56;5034321;28;45422;-73
2022/07/05 08:56:14;;;;;;;;;5.75;4.75;;;;;21.42;50.08;101934.66;5029304;28;46122;-73
2022/07/05 08:58:40;;;;;;;;;5.00;4.00;;;;;21.48;50.00;101938.88;5031653;28;47152;-73
2022/07/05 09:01:09;;;;;;;;;4.00;4.00;;;;;21.48;50.05;101928.00;5032326;28;45742;-73
2022/07/05 09:03:42;;;;;;;;;7.50;4.50;;;;;21.54;48.76;101932.22;5019634;28;45625;-73
2022/07/05 09:06:15;;;;;;;;;5.50;3.00;;;;;21.59;48.74;101935.53;5027172;28;46225;-73
2022/07/05 09:08:41;;;;;;;;;5.25;5.00;;;;;21.57;48.73;101935.63;5035569;28;47665;-73
2022/07/05 09:11:09;;;;;;;;;8.50;7.00;;;;;21.59;49.07;101930.09;5028896;28;45656;-73
2022/07/05 09:13:37;;;;;;;;;6.00;6.00;;;;;21.35;49.12;101905.22;5032278;28;45676;-73
2022/07/05 09:16:03;;;;;;;;;4.50;4.50;;;;;21.46;48.57;101919.91;5019518;28;45532;-73
2022/07/05 09:18:49;;;;;;;;;5.00;4.00;;;;;21.54;48.81;101924.06;5021449;28;48324;-73
2022/07/05 09:21:23;;;;;;;;;6.25;4.25;;;;;21.64;48.62;101928.84;5024202;28;46028;-73
2022/07/05 09:24:03;;;;;;;;;5.00;5.00;;;;;21.59;48.02;101920.09;5033040;28;45508;-73
2022/07/05 09:26:39;;;;;;;;;5.00;4.50;;;;;21.61;48.41;101925.44;5018439;28;45651;-73
2022/07/05 09:29:07;;;;;;;;;6.75;5.50;;;;;21.48;48.97;101916.28;5016629;28;47406;-73
2022/07/05 09:31:34;;;;;;;;;4.25;4.25;;;;;21.67;48.94;101941.38;5026117;28;45604;-73
2022/07/05 09:34:06;;;;;;;;;5.00;4.00;;;;;21.57;47.99;101915.75;5037302;28;45394;-73
2022/07/05 09:36:50;;;;;;;;;4.00;4.00;;;;;21.74;48.64;101937.31;5028576;28;45312;-73
2022/07/05 09:39:16;;;;;;;;;3.50;3.50;;;;;21.71;47.66;101929.34;5030432;28;47046;-73
2022/07/05 09:41:41;;;;;;;;;4.75;4.00;;;;;21.77;48.34;101922.69;5022412;28;45622;-73
2022/07/05 09:44:07;;;;;;;;;3.25;3.25;;;;;21.80;48.56;101926.06;5031740;28;45430;-73
2022/07/05 09:46:35;;;;;;;;;3.50;3.50;;;;;21.74;47.52;101906.56;5033360;28;45589;-73
2022/07/05 09:49:00;;;;;;;;;4.00;3.50;;;;;21.86;46.96;101929.38;5025931;28;45273;-73
2022/07/05 09:51:26;;;;;;;;;4.25;3.25;;;;;21.83;47.89;101912.31;5037167;28;45240;-73
2022/07/05 09:53:54;;;;;;;;;4.75;4.00;;;;;21.89;47.31;101910.19;5024232;28;45466;-73
2022/07/05 09:56:21;;;;;;;;;3.75;3.75;;;;;22.13;46.67;101943.09;5018301;28;45478;-73
2022/07/05 09:58:46;;;;;;;;;4.00;4.00;;;;;22.15;46.72;101949.31;5020354;28;47067;-73
2022/07/05 10:01:28;;;;;;;;;4.00;4.00;;;;;22.12;46.46;101942.25;5038864;28;45320;-72
2022/07/05 10:03:55;;;;;;;;;6.00;5.25;;;;;22.07;46.82;101927.16;5036682;28;45429;-73
2022/07/05 10:06:26;;;;;;;;;4.00;4.00;;;;;22.15;46.97;101933.00;5035832;28;45487;-73
2022/07/05 10:08:58;;;;;;;;;6.75;4.25;;;;;21.98;46.13;101890.56;5023392;28;47081;-73
2022/07/05 10:11:24;;;;;;;;;4.50;4.50;;;;;22.13;46.09;101922.22;5033198;28;46292;-73
2022/07/05 10:13:51;;;;;;;;;5.00;5.00;;;;;22.23;46.61;101927.97;5034134;28;45446;-73
2022/07/05 10:16:17;;;;;;;;;5.50;4.75;;;;;22.29;45.85;101922.19;5037563;28;45544;-73
2022/07/05 10:18:47;;;;;;;;;4.00;4.00;;;;;22.30;46.48;101939.38;5018814;28;45337;-73
2022/07/05 10:21:14;;;;;;;;;5.00;5.00;;;;;22.30;45.73;101931.19;5037136;28;45898;-73
2022/07/05 10:23:53;;;;;;;;;4.50;4.50;;;;;22.41;45.99;101936.84;5032758;28;45728;-73
2022/07/05 10:26:20;;;;;;;;;5.00;5.00;;;;;22.33;45.70;101921.00;5029118;28;45551;-73
2022/07/05 10:28:48;;;;;;;;;5.75;5.25;;;;;22.32;46.04;101905.66;5031493;28;46365;-73
2022/07/05 10:31:17;;;;;;;;;6.00;5.00;;;;;22.39;45.64;101917.03;5027230;28;45424;-73
2022/07/05 10:33:44;;;;;;;;;5.00;5.00;;;;;22.54;46.26;101935.09;5021198;28;45328;-73
2022/07/05 10:36:10;;;;;;;;;5.00;5.00;;;;;22.58;45.58;101930.31;5042108;28;45714;-73
2022/07/05 10:38:38;;;;;;;;;7.25;7.25;;;;;22.62;45.83;101940.06;5037231;28;47302;-73
2022/07/05 10:41:06;;;;;;;;;7.00;6.75;;;;;22.70;45.87;101939.53;5050159;28;45780;-73
2022/07/05 10:43:32;;;;;;;;;7.00;4.25;;;;;22.55;45.88;101900.59;5031288;28;45273;-73
2022/07/05 10:45:57;;;;;;;;;4.00;4.00;;;;;22.70;45.28;101926.81;5021267;28;45261;-73
2022/07/05 10:48:27;;;;;;;;;5.00;5.00;;;;;22.63;44.99;101897.38;5036727;28;47202;-73
2022/07/05 10:51:16;;;;;;;;;5.75;5.75;;;;;22.81;45.12;101933.41;5037806;28;45608;-73
2022/07/05 10:53:41;;;;;;;;;9.00;7.00;;;;;22.76;44.70;101928.25;5039516;28;45404;-73
2022/07/05 10:56:06;;;;;;;;;6.25;6.25;;;;;22.78;45.69;101922.72;5040311;28;45438;-73
2022/07/05 10:58:44;;;;;;;;;7.00;6.00;;;;;22.81;45.47;101923.38;5032367;28;48117;-73
2022/07/05 11:01:12;;;;;;;;;5.00;5.00;;;;;22.85;44.88;101916.75;5055602;28;45586;-73
2022/07/05 11:03:47;;;;;;;;;6.00;5.75;;;;;22.88;45.28;101924.72;5038842;28;45501;-73
2022/07/05 11:06:26;;;;;;;;;5.75;5.75;;;;;22.89;44.91;101915.59;5021848;28;45403;-73
2022/07/05 11:09:04;;;;;;;;;7.75;7.00;;;;;22.94;44.36;101916.16;5029482;28;47169;-72
2022/07/05 11:11:47;;;;;;;;;6.00;6.00;;;;;22.89;44.43;101910.16;5026844;28;45563;-73
2022/07/05 11:14:19;;;;;;;;;6.00;6.00;;;;;23.02;44.96;101915.66;5031096;28;45444;-73
2022/07/05 11:16:44;;;;;;;;;6.50;5.00;;;;;22.99;44.97;101904.06;5029737;28;46252;-73
2022/07/05 11:19:12;;;;;;;;;7.75;5.75;;;;;23.13;45.27;101918.56;5023912;28;46039;-77
2022/07/05 11:21:59;;;;;;;;;7.00;6.25;;;;;23.00;45.43;101894.94;5035551;28;45939;-74
2022/07/05 11:24:27;;;;;;;;;2.00;2.00;;;;;23.22;44.56;101916.19;5025605;28;45348;-74
2022/07/05 11:26:59;;;;;;;;;6.50;6.50;;;;;23.13;44.70;101891.31;5020124;28;45493;-74
2022/07/05 11:29:43;;;;;;;;;5.00;5.00;;;;;23.29;44.18;101912.97;5039971;28;46409;-74